ADDS METAR Data INFO
IDs: Format: Raw Decoded Include TAF

Data at: 0736 UTC 21 Jul 2018

PAOO 210710Z AUTO 10015KT 10SM SCT008 OVC022 14/13 A3013 RMK AO2 RAE05 P0000
PAOO 210656Z AUTO 10013KT 10SM -RA BKN008 OVC024 14/13 A3013 RMK AO2 RAB47 CIG 005V011 SLP213 P0000 T01390133
PAOO 210638Z AUTO 08010KT 10SM BKN008 BKN016 OVC021 14/13 A3012 RMK AO2 CIG 006V012
PAOO 210630Z AUTO 09009KT 10SM SCT008 BKN013 OVC021 14/13 A3012 RMK AO2
PAOO 210612Z AUTO 09009KT 10SM SCT011 OVC019 14/13 A3013 RMK AO2
PAOO 210603Z AUTO 10011KT 10SM BKN011 OVC019 14/13 A3013 RMK AO2
PAOO 210556Z AUTO 10012KT 9SM BKN009 BKN013 OVC019 14/13 A3013 RMK AO2 CIG 007V011 SLP213 T01390133 10156 20139 56005
PAOO 210542Z AUTO 10014KT 6SM BR BKN009 OVC014 14/13 A3013 RMK AO2 CIG 007V013
PAOO 210528Z AUTO 10014KT 7SM FEW007 OVC013 14/13 A3013 RMK AO2
PAOO 210456Z AUTO 11013KT 10SM OVC017 15/12 A3013 RMK AO2 SLP214 T01500122
PAOO 210356Z AUTO 11014KT 10SM BKN025 OVC033 15/12 A3013 RMK AO2 SLP215 T01500122
PAOO 210256Z AUTO 12016KT 10SM BKN023 OVC034 15/12 A3014 RMK AO2 SLP218 T01500122 56008
PAOO 210156Z AUTO 12013KT 10SM OVC022 15/12 A3015 RMK AO2 SLP219 T01500117
PAOO 210056Z AUTO 13015KT 10SM OVC020 16/12 A3015 RMK AO2 SLP222 T01560122
PAOO 202356Z AUTO 12015KT 10SM OVC022 15/12 A3016 RMK AO2 SLP225 T01500117 10161 20133 58000
PAOO 202338Z AUTO 12013KT 10SM BKN019 OVC045 15/11 A3017 RMK AO2
PAOO 202328Z AUTO 12013KT 10SM SCT021 OVC045 15/11 A3017 RMK AO2
PAOO 202256Z AUTO 13013KT 10SM SCT017 BKN024 OVC029 15/11 A3017 RMK AO2 SLP229 T01500111
PAOO 202224Z AUTO 14011KT 10SM BKN024 OVC040 15/12 A3017 RMK AO2
PAOO 202208Z AUTO 14010KT 10SM FEW024 BKN040 OVC048 15/11 A3017 RMK AO2
PAOO 202156Z AUTO 14012KT 10SM BKN024 OVC048 15/11 A3017 RMK AO2 SLP228 T01500111
PAOO 202109Z AUTO 14011KT 10SM BKN024 OVC035 16/11 A3016 RMK AO2
PAOO 202056Z AUTO 14011KT 10SM SCT020 SCT028 OVC035 16/11 A3017 RMK AO2 SLP226 T01610111 55002
PAOO 202053Z AUTO 13008KT 10SM SCT020 OVC035 16/11 A3016 RMK AO2
PAOO 202024Z AUTO 11006KT 10SM BKN018 OVC038 16/12 A3016 RMK AO2
PAOO 201956Z AUTO 11007KT 10SM BKN038 OVC050 15/12 A3017 RMK AO2 SLP226 T01500117
PAOO 201856Z AUTO 10008KT 10SM SCT055 SCT110 14/11 A3017 RMK AO2 SLP228 T01390111
PAOO 201756Z AUTO 09011KT 10SM FEW031 SCT055 13/11 A3018 RMK AO2 SLP230 T01330106 10139 20117 58004
PAOO 201656Z AUTO 08009KT 10SM SCT039 13/10 A3019 RMK AO2 SLP233 T01280100
PAOO 201556Z AUTO 08010KT 10SM SCT039 12/10 A3019 RMK AO2 SLP233 T01220100
PAOO 201456Z AUTO 07009KT 10SM BKN039 12/11 A3019 RMK AO2 SLP234 T01170106 58005
PAOO 201356Z AUTO 07008KT 10SM BKN030 BKN040 12/10 A3020 RMK AO2 SLP237 T01170100
PAOO 201256Z AUTO 07008KT 10SM BKN030 OVC043 12/10 A3020 RMK AO2 SLP238 T01220100
PAOO 201219Z AUTO 06009KT 10SM BKN030 OVC039 12/10 A3021 RMK AO2
PAOO 201156Z AUTO 05011KT 10SM BKN028 OVC043 12/10 A3021 RMK AO2 SLP240 T01220100 10144 20111 58007
PAOO 201115Z AUTO 04010KT 10SM OVC028 13/09 A3021 RMK AO2
PAOO 201056Z AUTO 04008KT 10SM OVC030 12/09 A3022 RMK AO2 SLP243 T01220094
PAOO 200956Z AUTO 00000KT 10SM BKN030 OVC044 12/08 A3023 RMK AO2 SLP247 T01220083
PAOO 200856Z AUTO 00000KT 10SM OVC044 12/09 A3023 RMK AO2 SLP247 T01220089 401500089 53003
PAOO 200756Z AUTO 05006KT 10SM OVC040 13/10 A3022 RMK AO2 SLP246 T01330100
PAOO 200656Z AUTO 03004KT 10SM OVC036 14/11 A3022 RMK AO2 SLP243 T01390106
PAOO 200556Z AUTO 00000KT 10SM OVC031 14/11 A3022 RMK AO2 SLP243 T01440106 10150 20139 56005
PAOO 200456Z AUTO 00000KT 10SM OVC031 14/09 A3022 RMK AO2 SLP244 T01440094
PAOO 200356Z AUTO 00000KT 10SM OVC033 15/09 A3022 RMK AO2 SLP246 T01500094
PAOO 200337Z AUTO 00000KT 10SM SCT027 OVC035 15/10 A3023 RMK AO2
PAOO 200256Z AUTO 20003KT 10SM OVC029 14/09 A3023 RMK AO2 SLP248 T01440094 56004
PAOO 200156Z AUTO 00000KT 10SM OVC029 14/09 A3024 RMK AO2 SLP250 T01440094
PAOO 200154Z AUTO 00000KT 10SM OVC029 14/09 A3024 RMK AO2
PAOO 200056Z AUTO 12003KT 10SM OVC033 14/09 A3024 RMK AO2 SLP252 T01440094
PAOO 200019Z AUTO 10004KT 10SM FEW020 OVC033 14/09 A3024 RMK AO2
PAOO 192356Z AUTO VRB03KT 10SM BKN022 OVC029 14/09 A3025 RMK AO2 SLP254 T01390094 10139 20106 53001
PAOO 192303Z AUTO 13003KT 10SM BKN022 OVC031 13/09 A3025 RMK AO2
PAOO 192256Z AUTO 07003KT 10SM SCT022 OVC031 13/09 A3025 RMK AO2 SLP254 T01330089
PAOO 192249Z AUTO VRB03KT 10SM BKN022 OVC031 13/09 A3025 RMK AO2
PAOO 192240Z AUTO 13005KT 10SM SCT020 OVC031 13/09 A3025 RMK AO2
PAOO 192156Z AUTO 15003KT 10SM OVC029 12/09 A3025 RMK AO2 SLP254 T01220094
PAOO 192056Z AUTO 01003KT 10SM OVC025 12/09 A3025 RMK AO2 SLP254 T01170089 55000
PAOO 192032Z AUTO VRB03KT 10SM SCT014 OVC025 11/08 A3024 RMK AO2
PAOO 191956Z AUTO 08003KT 9SM OVC014 11/08 A3025 RMK AO2 SLP254 T01060083
PAOO 191954Z AUTO 07004KT 9SM OVC014 11/08 A3025 RMK AO2